Time;durP1;ratioP1;P1;durP2;ratioP2;P2;SDS_P1;SDS_P2;PMS_P1;PMS_P2;Temp;Humidity;BMP_temperature;BMP_pressure;BME280_temperature;BME280_humidity;BME280_pressure;Samples;Min_cycle;Max_cycle;Signal;HPM_P1;HPM_P2
2021/08/18 00:00:44;;;;;;;;;;;;;;;23.00;28.17;97479.94;5071917;28;1906;-87
2021/08/18 00:03:10;;;;;;;;;;;;;;;22.95;28.16;97474.88;5072491;28;1179;-87
2021/08/18 00:05:36;;;;;;;;;;;;;;;22.84;28.39;97476.06;5071508;28;1143;-87
2021/08/18 00:08:02;;;;;;;;;;;;;;;22.75;28.32;97473.22;5056104;28;1242;-87
2021/08/18 00:10:28;;;;;;;;;;;;;;;22.75;28.38;97473.22;5072138;28;953;-87
2021/08/18 00:12:54;;;;;;;;;;;;;;;22.84;28.15;97472.44;5072006;28;1187;-87
2021/08/18 00:15:42;;;;;;;;;;;;;;;22.75;28.54;97467.53;5071692;28;786;-87
2021/08/18 00:18:28;;;;;;;;;;;;;;;22.87;28.28;97472.31;5072661;28;791;-87
2021/08/18 00:20:54;;;;;;;;;;;;;;;22.84;28.29;97470.38;5054011;28;1950;-87
2021/08/18 00:23:29;;;;;;;;;;;;;;;22.94;28.25;97473.31;5073197;28;874;-87
2021/08/18 00:25:55;;;;;;;;;;;;;;;23.03;27.83;97484.69;5069310;28;1185;-87
2021/08/18 00:28:21;;;;;;;;;;;;;;;22.99;28.26;97484.03;5072096;28;876;-88
2021/08/18 00:30:48;;;;;;;;;;;;;;;22.85;28.41;97483.34;5070546;28;770;-87
2021/08/18 00:33:54;;;;;;;;;;;;;;;22.86;28.37;97482.06;5071660;28;825;-87
2021/08/18 00:36:30;;;;;;;;;;;;;;;22.81;28.17;97481.91;5071976;28;832;-87
2021/08/18 00:38:57;;;;;;;;;;;;;;;22.81;28.44;97476.22;5055496;28;1167;-87
2021/08/18 00:41:22;;;;;;;;;;;;;;;22.80;28.28;97478.28;5054361;28;1962;-87
2021/08/18 00:43:51;;;;;;;;;;;;;;;22.84;28.14;97487.41;5056091;28;847;-87
2021/08/18 00:46:18;;;;;;;;;;;;;;;22.97;28.11;97486.56;5054025;28;1198;-86
2021/08/18 00:48:45;;;;;;;;;;;;;;;22.91;28.11;97488.44;5054594;28;1182;-87
2021/08/18 00:51:14;;;;;;;;;;;;;;;23.13;27.66;97486.31;5053835;28;1158;-87
2021/08/18 00:53:40;;;;;;;;;;;;;;;23.06;27.79;97495.13;5071261;28;1284;-87
2021/08/18 00:56:06;;;;;;;;;;;;;;;22.78;28.13;97489.28;5054179;28;1210;-86
2021/08/18 00:58:32;;;;;;;;;;;;;;;23.05;27.82;97485.00;5071552;28;1130;-87
2021/08/18 01:00:58;;;;;;;;;;;;;;;22.97;28.07;97495.88;5054118;28;1898;-86
2021/08/18 01:03:23;;;;;;;;;;;;;;;22.94;28.23;97484.66;5071854;28;1329;-87
2021/08/18 01:05:58;;;;;;;;;;;;;;;23.04;27.98;97489.88;5069399;28;1161;-87
2021/08/18 01:08:28;;;;;;;;;;;;;;;22.79;28.34;97479.50;5054576;28;1254;-87
2021/08/18 01:10:56;;;;;;;;;;;;;;;22.85;28.25;97483.34;5070027;28;1254;-87
2021/08/18 01:13:21;;;;;;;;;;;;;;;22.78;28.17;97480.78;5071135;28;1304;-87
2021/08/18 01:15:47;;;;;;;;;;;;;;;22.82;28.12;97489.94;5053436;28;1193;-87
2021/08/18 01:18:13;;;;;;;;;;;;;;;22.77;28.25;97482.03;5053871;28;1155;-88
2021/08/18 01:20:42;;;;;;;;;;;;;;;22.80;28.10;97489.63;5052751;28;1977;-87
2021/08/18 01:23:08;;;;;;;;;;;;;;;22.90;28.32;97484.81;5071045;28;1136;-87
2021/08/18 01:25:35;;;;;;;;;;;;;;;22.96;27.91;97482.94;5069068;28;836;-86
2021/08/18 01:28:01;;;;;;;;;;;;;;;22.94;28.05;97473.31;5069716;28;1297;-87
2021/08/18 01:30:27;;;;;;;;;;;;;;;22.96;27.88;97467.97;5052897;28;1196;-87
2021/08/18 01:32:53;;;;;;;;;;;;;;;23.00;27.86;97477.09;5068549;28;1248;-87
2021/08/18 01:35:19;;;;;;;;;;;;;;;22.93;28.23;97475.34;5053125;28;1178;-87
2021/08/18 01:37:44;;;;;;;;;;;;;;;22.81;28.44;97482.69;5052398;28;1234;-87
2021/08/18 01:40:10;;;;;;;;;;;;;;;22.87;28.12;97486.50;5055359;28;1152;-85
2021/08/18 01:42:37;;;;;;;;;;;;;;;22.73;28.36;97481.38;5056131;28;1975;-86
2021/08/18 01:45:02;;;;;;;;;;;;;;;22.62;28.56;97489.50;5054834;28;1258;-86
2021/08/18 01:47:28;;;;;;;;;;;;;;;22.86;27.99;97479.25;5055251;28;1166;-86
2021/08/18 01:49:53;;;;;;;;;;;;;;;22.86;28.35;97479.25;5038974;28;1171;-86
2021/08/18 01:52:19;;;;;;;;;;;;;;;22.66;28.38;97478.84;5054287;28;1144;-86
2021/08/18 01:54:44;;;;;;;;;;;;;;;22.83;28.20;97470.88;5055798;28;1171;-86
2021/08/18 01:57:10;;;;;;;;;;;;;;;22.88;28.13;97484.47;5054395;28;864;-86
2021/08/18 01:59:35;;;;;;;;;;;;;;;22.96;27.88;97482.94;5055703;28;1140;-86
2021/08/18 02:02:00;;;;;;;;;;;;;;;22.81;28.27;97477.00;5054802;28;1906;-86
2021/08/18 02:04:26;;;;;;;;;;;;;;;22.86;28.26;97482.06;5071831;28;765;-86
2021/08/18 02:06:51;;;;;;;;;;;;;;;22.90;27.97;97472.66;5054380;28;976;-86
2021/08/18 02:09:17;;;;;;;;;;;;;;;22.83;28.26;97474.50;5071452;28;995;-86
2021/08/18 02:11:43;;;;;;;;;;;;;;;22.82;28.21;97472.91;5054853;28;1286;-86
2021/08/18 02:14:08;;;;;;;;;;;;;;;22.68;28.48;97473.47;5039183;28;1162;-86
2021/08/18 02:16:34;;;;;;;;;;;;;;;22.66;28.47;97464.66;5038063;28;1126;-86
2021/08/18 02:18:59;;;;;;;;;;;;;;;22.69;28.33;97480.75;5055263;28;1138;-86
2021/08/18 02:21:25;;;;;;;;;;;;;;;22.72;28.21;97468.47;5070727;28;1882;-86
2021/08/18 02:23:50;;;;;;;;;;;;;;;22.66;28.52;97478.84;5071094;28;1241;-85
2021/08/18 02:26:15;;;;;;;;;;;;;;;22.76;28.03;97474.00;5038785;28;1167;-86
2021/08/18 02:28:41;;;;;;;;;;;;;;;22.82;27.92;97469.28;5071535;28;784;-86
2021/08/18 02:31:06;;;;;;;;;;;;;;;22.81;28.09;97479.84;5054640;28;1190;-86
2021/08/18 02:33:34;;;;;;;;;;;;;;;22.79;28.30;97490.06;5055166;28;1227;-86
2021/08/18 02:36:00;;;;;;;;;;;;;;;22.91;28.11;97494.09;5070257;28;1290;-86
2021/08/18 02:38:25;;;;;;;;;;;;;;;22.88;28.07;97488.09;5054029;28;936;-86
2021/08/18 02:40:51;;;;;;;;;;;;;;;22.87;28.00;97474.34;5053849;28;2271;-86
2021/08/18 02:43:16;;;;;;;;;;;;;;;22.82;28.19;97472.91;5055332;28;1173;-86
2021/08/18 02:45:42;;;;;;;;;;;;;;;22.90;28.14;97466.97;5074551;28;1222;-86
2021/08/18 02:48:08;;;;;;;;;;;;;;;22.83;28.09;97468.03;5058813;28;1264;-86
2021/08/18 02:50:33;;;;;;;;;;;;;;;22.64;28.21;97453.00;5055875;28;1136;-83
2021/08/18 02:52:59;;;;;;;;;;;;;;;22.83;28.05;97457.47;5072337;28;953;-84
2021/08/18 02:55:24;;;;;;;;;;;;;;;22.83;27.79;97457.47;5072767;28;959;-85
2021/08/18 02:57:50;;;;;;;;;;;;;;;22.96;27.84;97460.25;5072808;28;849;-85
2021/08/18 03:00:15;;;;;;;;;;;;;;;22.99;27.56;97464.19;5073025;28;1911;-85
2021/08/18 03:02:41;;;;;;;;;;;;;;;22.76;28.13;97460.59;5073598;28;769;-85
2021/08/18 03:05:06;;;;;;;;;;;;;;;22.81;27.71;97468.50;5073173;28;1253;-85
2021/08/18 03:07:32;;;;;;;;;;;;;;;22.85;27.73;97477.66;5040300;28;1176;-85
2021/08/18 03:09:57;;;;;;;;;;;;;;;22.85;27.72;97477.66;5073416;28;1169;-85
2021/08/18 03:12:23;;;;;;;;;;;;;;;22.73;27.98;97481.38;5040458;28;1184;-85
2021/08/18 03:14:48;;;;;;;;;;;;;;;22.85;27.72;97477.66;5073601;28;1150;-85
2021/08/18 03:17:14;;;;;;;;;;;;;;;22.86;27.84;97484.91;5073332;28;1211;-85
2021/08/18 03:19:39;;;;;;;;;;;;;;;22.96;27.37;97476.47;5072618;28;1172;-85
2021/08/18 03:22:05;;;;;;;;;;;;;;;22.87;27.54;97475.16;5072647;28;1978;-84
2021/08/18 03:24:30;;;;;;;;;;;;;;;22.86;27.54;97478.47;5056678;28;1157;-85
2021/08/18 03:26:56;;;;;;;;;;;;;;;22.73;27.67;97472.88;5073250;28;1260;-85
2021/08/18 03:29:21;;;;;;;;;;;;;;;22.75;27.82;97475.25;5072500;28;1358;-85
2021/08/18 03:31:47;;;;;;;;;;;;;;;22.67;28.07;97466.22;5072602;28;1172;-85
2021/08/18 03:34:12;;;;;;;;;;;;;;;22.81;27.82;97482.69;5055952;28;830;-85
2021/08/18 03:36:37;;;;;;;;;;;;;;;22.74;28.00;97480.16;5072073;28;1267;-85
2021/08/18 03:39:03;;;;;;;;;;;;;;;22.83;27.88;97483.00;5072561;28;1175;-85
2021/08/18 03:41:28;;;;;;;;;;;;;;;22.75;27.84;97478.09;5052609;28;1978;-85
2021/08/18 03:43:54;;;;;;;;;;;;;;;22.82;27.83;97475.75;5069614;28;1149;-85
2021/08/18 03:46:19;;;;;;;;;;;;;;;22.76;27.95;97477.63;5052696;28;1184;-85
2021/08/18 03:48:45;;;;;;;;;;;;;;;22.93;27.47;97472.50;5068866;28;1266;-84
2021/08/18 03:51:10;;;;;;;;;;;;;;;22.86;27.48;97469.94;5051943;28;1138;-84
2021/08/18 03:53:36;;;;;;;;;;;;;;;22.84;27.66;97480.94;5068994;28;1172;-84
2021/08/18 03:56:01;;;;;;;;;;;;;;;22.85;27.66;97472.00;5051457;28;1285;-85
2021/08/18 03:58:26;;;;;;;;;;;;;;;22.93;27.60;97471.72;5068776;28;1157;-85
2021/08/18 04:00:52;;;;;;;;;;;;;;;22.90;27.44;97467.78;5069205;28;1901;-85
2021/08/18 04:03:17;;;;;;;;;;;;;;;22.79;27.61;97479.50;5068316;28;1065;-85
2021/08/18 04:05:43;;;;;;;;;;;;;;;22.72;27.64;97479.81;5067025;28;934;-84
2021/08/18 04:08:08;;;;;;;;;;;;;;;22.92;27.42;97487.19;5067875;28;1315;-84
2021/08/18 04:10:37;;;;;;;;;;;;;;;22.73;27.98;97487.03;5067471;28;797;-83
2021/08/18 04:13:02;;;;;;;;;;;;;;;22.83;27.53;97477.31;5068413;28;734;-84
2021/08/18 04:15:38;;;;;;;;;;;;;;;22.80;27.57;97477.50;5051462;28;1287;-85
2021/08/18 04:18:03;;;;;;;;;;;;;;;22.75;27.92;97476.03;5068348;28;1259;-84
2021/08/18 04:20:29;;;;;;;;;;;;;;;22.84;27.61;97478.91;5050716;28;1906;-84
2021/08/18 04:22:54;;;;;;;;;;;;;;;22.90;27.73;97484.00;5067603;28;1284;-84
2021/08/18 04:25:20;;;;;;;;;;;;;;;22.67;27.95;97482.44;5067532;28;1190;-84
2021/08/18 04:27:45;;;;;;;;;;;;;;;22.74;27.88;97482.97;5067242;28;989;-84
2021/08/18 04:30:11;;;;;;;;;;;;;;;22.76;27.78;97491.81;5051598;28;1251;-85
2021/08/18 04:32:37;;;;;;;;;;;;;;;22.90;27.73;97492.50;5034341;28;1226;-85
2021/08/18 04:35:06;;;;;;;;;;;;;;;22.92;27.84;97492.84;5067359;28;826;-83
2021/08/18 04:37:37;;;;;;;;;;;;;;;22.84;27.72;97493.09;5067234;28;1279;-84
2021/08/18 04:40:04;;;;;;;;;;;;;;;22.83;28.13;97491.50;5069409;28;1135;-85
2021/08/18 04:42:33;;;;;;;;;;;;;;;22.85;27.85;97500.38;5053082;28;1875;-84
2021/08/18 04:44:59;;;;;;;;;;;;;;;22.86;27.94;97504.78;5086701;28;910;-82
2021/08/18 04:47:24;;;;;;;;;;;;;;;22.75;28.02;97504.41;5054063;28;1171;-83
2021/08/18 04:49:50;;;;;;;;;;;;;;;22.75;28.15;97509.28;5054264;28;1463;-85
2021/08/18 04:52:21;;;;;;;;;;;;;;;22.82;28.15;97509.00;5070762;28;845;-85
2021/08/18 04:54:46;;;;;;;;;;;;;;;22.81;28.14;97516.72;5052801;28;951;-85
2021/08/18 04:57:12;;;;;;;;;;;;;;;22.85;28.26;97517.38;5052809;28;1252;-83
2021/08/18 04:59:37;;;;;;;;;;;;;;;22.87;28.02;97522.59;5054222;28;1287;-85
2021/08/18 05:02:03;;;;;;;;;;;;;;;22.86;28.01;97529.50;5070261;28;1973;-85
2021/08/18 05:04:28;;;;;;;;;;;;;;;22.87;28.01;97520.53;5036928;28;1151;-85
2021/08/18 05:06:54;;;;;;;;;;;;;;;22.90;27.94;97523.72;5069817;28;1164;-84
2021/08/18 05:09:19;;;;;;;;;;;;;;;22.71;28.32;97517.94;5052937;28;1168;-85
2021/08/18 05:11:45;;;;;;;;;;;;;;;22.88;28.31;97516.47;5069230;28;1261;-84
2021/08/18 05:14:10;;;;;;;;;;;;;;;22.80;28.27;97522.88;5070054;28;1467;-85
2021/08/18 05:16:35;;;;;;;;;;;;;;;22.82;28.40;97529.66;5054082;28;1142;-85
2021/08/18 05:19:01;;;;;;;;;;;;;;;22.72;28.43;97522.34;5053984;28;1307;-84
2021/08/18 05:21:27;;;;;;;;;;;;;;;22.87;28.47;97525.41;5068918;28;1887;-85
2021/08/18 05:23:52;;;;;;;;;;;;;;;22.77;28.67;97527.41;5068287;28;1151;-85
2021/08/18 05:26:18;;;;;;;;;;;;;;;22.83;28.30;97536.91;5085933;28;1146;-85
2021/08/18 05:28:43;;;;;;;;;;;;;;;22.85;28.25;97545.75;5037019;28;1178;-84
2021/08/18 05:31:09;;;;;;;;;;;;;;;22.87;28.32;97548.91;5070065;28;1181;-85
2021/08/18 05:33:34;;;;;;;;;;;;;;;22.86;28.54;97546.53;5086440;28;1194;-85
2021/08/18 05:36:00;;;;;;;;;;;;;;;22.79;28.44;97550.41;5069994;28;583;-85
2021/08/18 05:38:25;;;;;;;;;;;;;;;23.00;28.15;97539.53;5068733;28;1246;-85
2021/08/18 05:40:51;;;;;;;;;;;;;;;22.85;28.20;97544.97;5048965;28;1918;-84
2021/08/18 05:43:16;;;;;;;;;;;;;;;22.76;28.62;97542.06;5049398;28;1275;-85
2021/08/18 05:45:42;;;;;;;;;;;;;;;22.73;28.38;97543.78;5049793;28;1457;-85
2021/08/18 05:48:07;;;;;;;;;;;;;;;22.75;28.65;97537.66;5067256;28;1150;-84
2021/08/18 05:50:33;;;;;;;;;;;;;;;22.72;28.87;97536.53;5065634;28;893;-84
2021/08/18 05:52:58;;;;;;;;;;;;;;;22.86;28.52;97547.31;5066921;28;1190;-84
2021/08/18 05:55:24;;;;;;;;;;;;;;;22.90;28.58;97546.41;5049960;28;1298;-84
2021/08/18 05:57:51;;;;;;;;;;;;;;;22.89;28.38;97545.63;5066148;28;916;-84
2021/08/18 06:00:16;;;;;;;;;;;;;;;22.78;28.81;97539.53;5065583;28;1248;-85
2021/08/18 06:02:42;;;;;;;;;;;;;;;22.94;28.16;97544.22;5065673;28;1898;-84
2021/08/18 06:05:08;;;;;;;;;;;;;;;22.76;28.35;97537.19;5048799;28;1165;-85
2021/08/18 06:07:33;;;;;;;;;;;;;;;22.72;28.89;97539.34;5066636;28;623;-84
2021/08/18 06:09:58;;;;;;;;;;;;;;;22.74;28.76;97534.03;5065388;28;1162;-84
2021/08/18 06:12:24;;;;;;;;;;;;;;;22.83;28.49;97542.56;5065064;28;1186;-84
2021/08/18 06:14:49;;;;;;;;;;;;;;;22.69;28.74;97545.97;5048093;28;1169;-84
2021/08/18 06:17:15;;;;;;;;;;;;;;;22.83;28.71;97542.56;5066050;28;1463;-84
2021/08/18 06:19:40;;;;;;;;;;;;;;;22.69;28.67;97542.31;5069864;28;674;-85
2021/08/18 06:22:07;;;;;;;;;;;;;;;22.82;28.88;97541.00;5053575;28;1915;-84
2021/08/18 06:24:43;;;;;;;;;;;;;;;22.87;28.33;97548.91;5070268;28;555;-85
2021/08/18 06:27:09;;;;;;;;;;;;;;;22.94;28.31;97552.75;5046275;28;1323;-85
2021/08/18 06:29:35;;;;;;;;;;;;;;;22.87;28.66;97560.25;5069443;28;924;-85
2021/08/18 06:32:01;;;;;;;;;;;;;;;22.76;28.81;97554.19;5053189;28;779;-84
2021/08/18 06:34:27;;;;;;;;;;;;;;;22.88;28.45;97550.50;5036567;28;1173;-85
2021/08/18 06:36:52;;;;;;;;;;;;;;;22.91;28.23;97548.00;5070155;28;1159;-85
2021/08/18 06:39:18;;;;;;;;;;;;;;;22.73;28.79;97546.59;5070021;28;1165;-84
2021/08/18 06:41:43;;;;;;;;;;;;;;;22.77;28.44;97547.25;5055992;28;1906;-85
2021/08/18 06:44:09;;;;;;;;;;;;;;;22.67;28.59;97545.63;5055746;28;1283;-83
2021/08/18 06:46:34;;;;;;;;;;;;;;;22.85;28.57;97551.44;5072630;28;1191;-84
2021/08/18 06:49:00;;;;;;;;;;;;;;;22.75;28.72;97541.28;5073375;28;925;-84
2021/08/18 06:51:26;;;;;;;;;;;;;;;22.84;28.48;97538.47;5089369;28;1146;-85
2021/08/18 06:53:51;;;;;;;;;;;;;;;22.99;28.04;97537.94;5071848;28;1172;-85
2021/08/18 06:56:17;;;;;;;;;;;;;;;22.95;28.25;97537.28;5055797;28;836;-85
2021/08/18 06:58:42;;;;;;;;;;;;;;;22.98;28.48;97528.66;5055577;28;926;-84
2021/08/18 07:01:08;;;;;;;;;;;;;;;22.87;28.35;97531.09;5072715;28;1918;-85
2021/08/18 07:03:33;;;;;;;;;;;;;;;23.05;28.32;97525.53;5055286;28;1144;-83
2021/08/18 07:05:59;;;;;;;;;;;;;;;22.88;28.33;97544.84;5031801;28;1185;-85
2021/08/18 07:08:24;;;;;;;;;;;;;;;22.60;28.89;97537.41;5055265;28;1153;-85
2021/08/18 07:10:51;;;;;;;;;;;;;;;22.64;29.14;97543.75;5072578;28;1181;-85
2021/08/18 07:13:17;;;;;;;;;;;;;;;22.72;28.92;97536.53;5055907;28;941;-85
2021/08/18 07:15:42;;;;;;;;;;;;;;;22.77;28.70;97533.09;5055996;28;1399;-84
2021/08/18 07:18:08;;;;;;;;;;;;;;;22.93;28.39;97539.81;5072514;28;747;-85
2021/08/18 07:20:33;;;;;;;;;;;;;;;22.90;28.40;97535.06;5039407;28;1956;-85
2021/08/18 07:22:59;;;;;;;;;;;;;;;22.84;28.62;97532.00;5088814;28;903;-85
2021/08/18 07:25:24;;;;;;;;;;;;;;;22.52;28.73;97534.03;5068644;28;911;-84
2021/08/18 07:27:50;;;;;;;;;;;;;;;22.79;28.49;97541.91;5070890;28;1290;-85
2021/08/18 07:30:15;;;;;;;;;;;;;;;22.83;28.21;97542.56;5070980;28;695;-84
2021/08/18 07:32:41;;;;;;;;;;;;;;;22.91;28.07;97539.50;5089605;28;610;-85
2021/08/18 07:35:06;;;;;;;;;;;;;;;22.88;27.93;97544.84;5053833;28;886;-83
2021/08/18 07:37:32;;;;;;;;;;;;;;;22.86;28.02;97547.31;5054835;28;975;-83
2021/08/18 07:39:58;;;;;;;;;;;;;;;22.99;28.08;97549.31;5054508;28;1001;-83
2021/08/18 07:42:23;;;;;;;;;;;;;;;22.77;28.16;97550.09;5071623;28;1971;-85
2021/08/18 07:44:49;;;;;;;;;;;;;;;22.87;28.06;97545.28;5055157;28;1142;-85
2021/08/18 07:47:14;;;;;;;;;;;;;;;22.83;28.06;97541.78;5055987;28;830;-85
2021/08/18 07:49:39;;;;;;;;;;;;;;;22.88;27.87;97542.00;5054962;28;1263;-85
2021/08/18 07:52:05;;;;;;;;;;;;;;;22.85;27.96;97545.75;5054153;28;950;-84
2021/08/18 07:54:31;;;;;;;;;;;;;;;22.81;28.02;97549.97;5071350;28;1162;-84
2021/08/18 07:56:56;;;;;;;;;;;;;;;22.93;27.80;97551.94;5072287;28;658;-85
2021/08/18 07:59:22;;;;;;;;;;;;;;;22.83;28.02;97551.06;5038679;28;1264;-85
2021/08/18 08:01:47;;;;;;;;;;;;;;;22.90;28.17;97554.91;5055490;28;1902;-85
2021/08/18 08:04:13;;;;;;;;;;;;;;;22.91;27.94;97553.69;5055681;28;1175;-85
2021/08/18 08:06:38;;;;;;;;;;;;;;;22.99;28.14;97549.31;5070637;28;944;-85
2021/08/18 08:09:04;;;;;;;;;;;;;;;22.98;28.18;97559.84;5055619;28;849;-85
2021/08/18 08:11:29;;;;;;;;;;;;;;;23.00;28.19;97559.38;5039115;28;1253;-84
2021/08/18 08:13:55;;;;;;;;;;;;;;;22.79;28.18;97549.63;5056057;28;1175;-85
2021/08/18 08:16:20;;;;;;;;;;;;;;;22.75;28.54;97552.63;5055308;28;1275;-85
2021/08/18 08:18:46;;;;;;;;;;;;;;;22.87;28.30;97548.91;5071600;28;1083;-85
2021/08/18 08:21:11;;;;;;;;;;;;;;;22.96;28.30;97544.56;5054316;28;1952;-83
2021/08/18 08:23:37;;;;;;;;;;;;;;;22.79;28.29;97544.75;5052859;28;1182;-83
2021/08/18 08:26:02;;;;;;;;;;;;;;;22.73;28.22;97552.28;5069984;28;688;-84
2021/08/18 08:28:28;;;;;;;;;;;;;;;22.71;28.26;97540.63;5088082;28;1253;-85
2021/08/18 08:30:53;;;;;;;;;;;;;;;22.80;28.23;97546.34;5054041;28;737;-83
2021/08/18 08:33:19;;;;;;;;;;;;;;;22.94;27.97;97544.22;5052511;28;1267;-85
2021/08/18 08:35:44;;;;;;;;;;;;;;;22.85;28.28;97545.75;5054375;28;1024;-85
2021/08/18 08:38:10;;;;;;;;;;;;;;;22.79;28.51;97539.06;5071610;28;1022;-85
2021/08/18 08:40:36;;;;;;;;;;;;;;;22.67;28.56;97533.50;5050133;28;1959;-85
2021/08/18 08:43:02;;;;;;;;;;;;;;;22.73;28.59;97532.44;5052125;28;623;-84
2021/08/18 08:45:27;;;;;;;;;;;;;;;22.81;28.36;97539.41;5051308;28;1158;-85
2021/08/18 08:47:53;;;;;;;;;;;;;;;22.86;28.08;97540.88;5051702;28;1217;-85
2021/08/18 08:50:18;;;;;;;;;;;;;;;22.96;27.91;97539.69;5051430;28;924;-85
2021/08/18 08:52:44;;;;;;;;;;;;;;;22.69;28.60;97545.16;5034927;28;1151;-84
2021/08/18 08:55:10;;;;;;;;;;;;;;;22.75;28.52;97544.13;5051477;28;1153;-84
2021/08/18 08:58:02;;;;;;;;;;;;;;;22.81;28.57;97539.41;5051400;28;1145;-85
2021/08/18 09:00:27;;;;;;;;;;;;;;;22.91;28.40;97536.66;5065101;28;993;-85
2021/08/18 09:03:06;;;;;;;;;;;;;;;22.95;28.01;97534.44;5068093;28;928;-85
2021/08/18 09:05:31;;;;;;;;;;;;;;;22.89;28.25;97534.28;5034512;28;845;-85
2021/08/18 09:07:57;;;;;;;;;;;;;;;22.62;28.55;97535.69;5050970;28;1128;-84
2021/08/18 09:10:29;;;;;;;;;;;;;;;22.75;28.42;97532.78;5051447;28;1166;-84
2021/08/18 09:13:11;;;;;;;;;;;;;;;22.79;28.41;97530.56;5051253;28;1230;-85
2021/08/18 09:15:36;;;;;;;;;;;;;;;22.75;28.21;97532.78;5034345;28;751;-84
2021/08/18 09:18:02;;;;;;;;;;;;;;;22.85;28.25;97523.06;5050777;28;1169;-84
2021/08/18 09:20:29;;;;;;;;;;;;;;;22.76;28.32;97523.00;5050695;28;884;-85
2021/08/18 09:22:55;;;;;;;;;;;;;;;22.76;28.12;97523.00;5034581;28;1181;-85
2021/08/18 09:25:24;;;;;;;;;;;;;;;22.66;28.42;97527.03;5050659;28;1152;-85
2021/08/18 09:27:54;;;;;;;;;;;;;;;22.71;28.71;97528.50;5050751;28;554;-84
2021/08/18 09:30:26;;;;;;;;;;;;;;;22.77;28.25;97527.41;5050482;28;1278;-85
2021/08/18 09:32:52;;;;;;;;;;;;;;;22.80;28.38;97532.16;5049780;28;1050;-84
2021/08/18 09:35:19;;;;;;;;;;;;;;;22.92;28.38;97521.22;5034349;28;1158;-85
2021/08/18 09:38:13;;;;;;;;;;;;;;;22.75;28.56;97535.59;5033950;28;913;-84
2021/08/18 09:40:43;;;;;;;;;;;;;;;22.82;28.46;97523.19;5033815;28;1898;-85
2021/08/18 09:43:16;;;;;;;;;;;;;;;22.85;28.32;97528.72;5053722;28;639;-85
2021/08/18 09:45:44;;;;;;;;;;;;;;;22.76;28.35;97516.53;5070712;28;709;-84
2021/08/18 09:48:16;;;;;;;;;;;;;;;22.75;28.41;97529.94;5069738;28;1005;-83
2021/08/18 09:50:44;;;;;;;;;;;;;;;22.73;28.47;97538.09;5053381;28;1158;-85
2021/08/18 09:53:11;;;;;;;;;;;;;;;22.78;28.41;97533.88;5070974;28;654;-84
2021/08/18 09:55:36;;;;;;;;;;;;;;;22.82;28.32;97532.47;5074757;28;1290;-84
2021/08/18 09:58:02;;;;;;;;;;;;;;;22.95;28.02;97531.63;5074355;28;1142;-85
2021/08/18 10:00:27;;;;;;;;;;;;;;;22.82;28.10;97526.03;5057476;28;1188;-84
2021/08/18 10:02:52;;;;;;;;;;;;;;;22.96;28.17;97521.88;5057354;28;1918;-85
2021/08/18 10:05:18;;;;;;;;;;;;;;;22.75;28.49;97523.47;5056593;28;1245;-84
2021/08/18 10:07:44;;;;;;;;;;;;;;;22.83;28.14;97514.19;5074230;28;979;-84
2021/08/18 10:10:09;;;;;;;;;;;;;;;22.78;28.31;97522.53;5074271;28;1246;-85
2021/08/18 10:12:35;;;;;;;;;;;;;;;22.83;28.18;97514.19;5073629;28;1285;-85
2021/08/18 10:15:01;;;;;;;;;;;;;;;22.72;28.32;97525.19;5057906;28;718;-84
2021/08/18 10:17:30;;;;;;;;;;;;;;;22.67;28.60;97522.16;5075057;28;710;-85
2021/08/18 10:19:56;;;;;;;;;;;;;;;22.74;28.86;97511.34;5074590;28;992;-84
2021/08/18 10:22:28;;;;;;;;;;;;;;;22.90;28.40;97518.84;5073536;28;1981;-84
2021/08/18 10:24:53;;;;;;;;;;;;;;;22.98;28.13;97519.34;5057713;28;1185;-85
2021/08/18 10:27:37;;;;;;;;;;;;;;;22.88;28.46;97513.63;5057385;28;1181;-85
2021/08/18 10:30:22;;;;;;;;;;;;;;;22.84;28.67;97515.78;5073898;28;1192;-85
2021/08/18 10:32:47;;;;;;;;;;;;;;;22.80;28.71;97520.03;5073563;28;1159;-85
2021/08/18 10:35:51;;;;;;;;;;;;;;;22.81;28.57;97519.56;5073426;28;670;-85
2021/08/18 10:38:29;;;;;;;;;;;;;;;22.82;28.73;97514.69;5049507;28;1111;-85
2021/08/18 10:40:54;;;;;;;;;;;;;;;22.87;28.35;97514.06;5041290;28;1960;-85
2021/08/18 10:43:38;;;;;;;;;;;;;;;22.90;28.44;97518.84;5058496;28;1020;-85
2021/08/18 10:46:04;;;;;;;;;;;;;;;22.81;28.76;97508.22;5077368;28;1176;-84
2021/08/18 10:49:05;;;;;;;;;;;;;;;22.75;28.71;97501.56;5077676;28;1274;-84
2021/08/18 10:51:39;;;;;;;;;;;;;;;22.64;29.22;97509.72;4993879;28;1137;-84
2021/08/18 10:54:23;;;;;;;;;;;;;;;22.66;29.14;97510.03;5096901;28;909;-84
2021/08/18 10:56:56;;;;;;;;;;;;;;;22.81;28.63;97491.19;5111834;28;909;-85
2021/08/18 10:59:46;;;;;;;;;;;;;;;22.79;28.81;97502.19;5094308;28;922;-83
2021/08/18 11:02:32;;;;;;;;;;;;;;;22.83;28.79;97508.53;5075296;28;1967;-85
2021/08/18 11:04:57;;;;;;;;;;;;;;;22.78;28.77;97505.50;5110053;28;1109;-84
2021/08/18 11:07:23;;;;;;;;;;;;;;;22.90;28.76;97501.00;5076531;28;1223;-85
2021/08/18 11:09:48;;;;;;;;;;;;;;;22.86;28.73;97496.25;5093525;28;1485;-84
2021/08/18 11:12:32;;;;;;;;;;;;;;;22.75;28.70;97493.06;5092925;28;974;-84
2021/08/18 11:14:58;;;;;;;;;;;;;;;22.84;28.78;97493.09;5090809;28;950;-83
2021/08/18 11:17:23;;;;;;;;;;;;;;;22.96;28.81;97497.13;5059694;28;1167;-85
2021/08/18 11:19:49;;;;;;;;;;;;;;;22.78;28.78;97485.66;5093235;28;623;-85
2021/08/18 11:22:14;;;;;;;;;;;;;;;22.84;28.92;97487.41;5093529;28;1913;-85
2021/08/18 11:24:40;;;;;;;;;;;;;;;23.08;28.30;97484.06;5093646;28;646;-84
2021/08/18 11:27:05;;;;;;;;;;;;;;;22.91;28.49;97485.59;5075719;28;1183;-84
2021/08/18 11:29:30;;;;;;;;;;;;;;;22.89;28.80;97483.22;5092531;28;939;-85
2021/08/18 11:31:57;;;;;;;;;;;;;;;22.83;28.81;97480.16;5093420;28;1204;-84
2021/08/18 11:34:26;;;;;;;;;;;;;;;22.70;29.30;97473.81;5092906;28;595;-85
2021/08/18 11:36:57;;;;;;;;;;;;;;;22.72;29.06;97479.00;5093029;28;706;-85
2021/08/18 11:39:22;;;;;;;;;;;;;;;22.72;29.05;97468.47;5076178;28;1312;-84
2021/08/18 11:41:48;;;;;;;;;;;;;;;22.78;28.94;97460.91;5059266;28;1879;-85
2021/08/18 11:44:29;;;;;;;;;;;;;;;22.75;29.23;97461.88;5089546;28;865;-85
2021/08/18 11:46:55;;;;;;;;;;;;;;;22.87;28.71;97463.78;5055612;28;651;-85
2021/08/18 11:49:22;;;;;;;;;;;;;;;22.84;28.91;97459.03;5056385;28;854;-85
2021/08/18 11:51:48;;;;;;;;;;;;;;;22.84;28.82;97459.03;5055950;28;850;-84
2021/08/18 11:54:14;;;;;;;;;;;;;;;22.90;28.78;97466.97;5056098;28;1179;-84
2021/08/18 11:56:39;;;;;;;;;;;;;;;23.05;28.61;97463.13;5072124;28;886;-85
2021/08/18 11:59:06;;;;;;;;;;;;;;;22.90;28.73;97455.63;5055273;28;1011;-84
2021/08/18 12:01:32;;;;;;;;;;;;;;;22.83;28.85;97451.78;5055161;28;1883;-83
2021/08/18 12:03:57;;;;;;;;;;;;;;;22.91;28.79;97457.22;5055615;28;847;-85
2021/08/18 12:06:31;;;;;;;;;;;;;;;22.96;28.82;97460.25;5055193;28;992;-85
2021/08/18 12:09:00;;;;;;;;;;;;;;;22.85;28.79;97443.63;5073186;28;777;-83
2021/08/18 12:11:36;;;;;;;;;;;;;;;22.98;28.71;97457.72;5055503;28;861;-85
2021/08/18 12:14:08;;;;;;;;;;;;;;;22.83;28.95;97457.47;5055502;28;911;-83
2021/08/18 12:16:34;;;;;;;;;;;;;;;22.66;29.20;97441.97;5054453;28;1160;-85
2021/08/18 12:19:19;;;;;;;;;;;;;;;22.77;29.00;97439.47;5055451;28;1294;-85
2021/08/18 12:21:45;;;;;;;;;;;;;;;22.79;29.22;97439.00;5072077;28;1898;-85
2021/08/18 12:24:27;;;;;;;;;;;;;;;22.95;28.62;97440.84;5055767;28;1308;-85
2021/08/18 12:26:57;;;;;;;;;;;;;;;22.83;29.01;97429.09;5055130;28;1171;-85
2021/08/18 12:29:22;;;;;;;;;;;;;;;22.77;29.09;97422.47;5055176;28;1408;-83
2021/08/18 12:31:58;;;;;;;;;;;;;;;22.88;29.06;97425.69;5071728;28;929;-85
2021/08/18 12:34:33;;;;;;;;;;;;;;;22.80;28.88;97418.72;5055041;28;813;-84
2021/08/18 12:37:00;;;;;;;;;;;;;;;22.85;28.82;97415.25;5047169;28;1245;-85
2021/08/18 12:39:27;;;;;;;;;;;;;;;22.87;29.02;97411.94;5054231;28;971;-85
2021/08/18 12:41:54;;;;;;;;;;;;;;;23.02;28.50;97406.50;5070122;28;1894;-85
2021/08/18 12:44:19;;;;;;;;;;;;;;;22.94;28.84;97416.56;5036978;28;1167;-85
2021/08/18 12:46:45;;;;;;;;;;;;;;;22.91;28.69;97406.94;5070472;28;1169;-85
2021/08/18 12:49:29;;;;;;;;;;;;;;;22.84;28.81;97399.47;5054074;28;1140;-83
2021/08/18 12:51:55;;;;;;;;;;;;;;;22.72;29.18;97400.38;5053210;28;1271;-85
2021/08/18 12:54:20;;;;;;;;;;;;;;;22.92;28.79;97390.72;5037750;28;1285;-83
2021/08/18 12:56:46;;;;;;;;;;;;;;;22.83;28.78;97406.41;5053625;28;1112;-85
2021/08/18 12:59:11;;;;;;;;;;;;;;;22.88;28.85;97391.66;5070597;28;868;-84
2021/08/18 13:01:37;;;;;;;;;;;;;;;22.80;29.06;97390.34;5069782;28;1898;-85